Sacramento, CA

6:10 PM PDT on August 31, 2016 (GMT -0700)
North Sac. | | Change Station

Elev 36 ft 38.60 °N, 121.47 °W | Updated 2 seconds ago

Clear
Clear
88.9 °F
Feels Like 86 °F
N
1.1
Wind Variable Wind from SW
Gusts 2.5 mph

Today
High -- | Low -- °F
--% Chance of Precip.
Yesterday
High -- | Low -- °F
Precip. -- in
Pressure 29.84 in
Visibility 10.0 miles
Clouds Clear
Heat Index 86 °F
Dew Point 49 °F
Humidity 25%
Rainfall 0.00 in
Snow Depth Not available.
6:34 AM 7:36 PM
Waning Crescent, 0% visible
METAR KMCC 010050Z AUTO 20007KT 170V230 10SM CLR 31/06 A2984 RMK AO2
Pressure 29.84 in
Visibility 10.0 miles
Clouds Clear
Heat Index 86 °F
Dew Point 49 °F
Humidity 25%
Rainfall 0.00 in
Snow Depth Not available.
6:34 AM 7:36 PM
Waning Crescent, 0% visible
METAR KMCC 010050Z AUTO 20007KT 170V230 10SM CLR 31/06 A2984 RMK AO2

10-Day Weather Forecast

Almanac

Astronomy

Aug. 31, 2016 Rise Set
Actual Time
Civil Twilight
Nautical Twilight
Astronomical Twilight
Moon
Length of Visible Light
Length of Day
Tomorrow will be .
, % of the Moon is Illuminated

Today's Extremes

State Highs State Lows

Community

WunderPhotos

Upload Photos

1,936,256 photos uploaded!

WunderBlog® & News

Nearby

Air Quality

  Air Quality AQ Index Pollutant
Not available.

Snow Depth

Station Depth Elevation

Earthquake Activity

City Distance Mag. Time & Date
Minimum magnitude displayed is 2.5.

Coastal Water Temperatures

Place Temperature

Stations

Nearby Weather Stations

Station Location Temp. Windchill Dew Point Humidity Wind Precip. Elev Updated Type
                   

Watches & Warnings

There are currently no watches in effect.